createdAt,value
2022-08-17T00:02:26.502Z,100683.00
2022-08-17T00:05:31.972Z,100682.84
2022-08-17T00:08:40.975Z,100681.88
2022-08-17T00:12:42.177Z,100688.75
2022-08-17T00:15:11.002Z,100681.38
2022-08-17T00:19:06.041Z,100685.81
2022-08-17T00:22:32.785Z,100686.97
2022-08-17T00:25:03.785Z,100685.50
2022-08-17T00:28:07.109Z,100681.06
2022-08-17T00:31:11.654Z,100692.53
2022-08-17T00:34:14.455Z,100690.09
2022-08-17T00:37:17.268Z,100688.13
2022-08-17T00:40:22.119Z,100688.59
2022-08-17T00:43:32.685Z,100689.56
2022-08-17T00:46:39.301Z,100690.06
2022-08-17T00:49:42.109Z,100684.97
2022-08-17T00:52:51.991Z,100697.44
2022-08-17T00:55:56.561Z,100694.97
2022-08-17T00:58:59.620Z,100685.41
2022-08-17T01:02:03.394Z,100690.78
2022-08-17T01:05:08.625Z,100702.63
2022-08-17T01:08:14.600Z,100701.47
2022-08-17T01:11:19.750Z,100702.94
2022-08-17T01:14:24.144Z,100703.44
2022-08-17T01:17:28.968Z,100701.78
2022-08-17T01:20:32.466Z,100700.56
2022-08-17T01:23:53.156Z,100695.69
2022-08-17T01:26:56.704Z,100708.97
2022-08-17T01:30:56.963Z,100709.28
2022-08-17T01:33:30.250Z,100704.22
2022-08-17T01:36:32.942Z,100708.50
2022-08-17T01:39:42.064Z,100701.31
2022-08-17T01:42:47.923Z,100711.09
2022-08-17T01:46:02.645Z,100718.56
2022-08-17T01:49:08.723Z,100723.00
2022-08-17T01:52:13.157Z,100727.63
2022-08-17T01:55:25.856Z,100730.09
2022-08-17T01:58:29.980Z,100727.50
2022-08-17T02:01:34.716Z,100720.28
2022-08-17T02:04:37.700Z,100724.09
2022-08-17T02:07:59.383Z,100720.69
2022-08-17T02:11:11.178Z,100721.19
2022-08-17T02:14:15.573Z,100724.09
2022-08-17T02:17:18.452Z,100724.34
2022-08-17T02:20:41.620Z,100717.59
2022-08-17T02:23:49.512Z,100713.59
2022-08-17T02:26:53.693Z,100724.63
2022-08-17T02:29:56.361Z,100721.34
2022-08-17T02:32:59.152Z,100718.63
2022-08-17T02:36:08.909Z,100714.59
2022-08-17T02:39:13.788Z,100718.50
2022-08-17T02:42:18.414Z,100705.75
2022-08-17T02:45:24.209Z,100709.59
2022-08-17T02:48:30.541Z,100712.91
2022-08-17T02:51:35.288Z,100716.78
2022-08-17T02:54:42.280Z,100712.38
2022-08-17T02:57:46.828Z,100706.25
2022-08-17T03:00:49.731Z,100704.09
2022-08-17T03:03:52.417Z,100706.25
2022-08-17T03:06:55.206Z,100710.53
2022-08-17T03:09:57.875Z,100714.22
2022-08-17T03:13:02.503Z,100709.34
2022-08-17T03:16:05.630Z,100713.75
2022-08-17T03:19:08.301Z,100720.72
2022-08-17T03:22:35.864Z,100718.75
2022-08-17T03:25:36.696Z,100710.31
2022-08-17T03:28:42.850Z,100710.81
2022-08-17T03:31:45.826Z,100704.91
2022-08-17T03:34:49.066Z,100705.41
2022-08-17T03:38:00.117Z,100712.31
2022-08-17T03:41:06.132Z,100703.91
2022-08-17T03:44:10.474Z,100704.47
2022-08-17T03:47:30.699Z,100701.69
2022-08-17T03:50:51.043Z,100711.00
2022-08-17T03:54:16.789Z,100700.63
2022-08-17T03:57:20.479Z,100711.00
2022-08-17T04:00:24.558Z,100710.03
2022-08-17T04:03:27.429Z,100706.88
2022-08-17T04:06:30.110Z,100713.88
2022-08-17T04:09:33.022Z,100712.25
2022-08-17T04:12:45.408Z,100711.31
2022-08-17T04:15:49.463Z,100714.34
2022-08-17T04:18:53.920Z,100705.69
2022-08-17T04:21:57.749Z,100703.59
2022-08-17T04:25:01.285Z,100710.94
2022-08-17T04:28:05.588Z,100713.00
2022-08-17T04:31:18.861Z,100723.06
2022-08-17T04:34:21.543Z,100720.59
2022-08-17T04:37:24.206Z,100718.88
2022-08-17T04:40:46.305Z,100722.34
2022-08-17T04:43:50.400Z,100726.59
2022-08-17T04:46:54.400Z,100724.63
2022-08-17T04:50:00.896Z,100735.16
2022-08-17T04:53:04.407Z,100725.03
2022-08-17T04:56:07.865Z,100726.78
2022-08-17T04:59:17.301Z,100726.19
2022-08-17T05:02:21.447Z,100736.75
2022-08-17T05:05:26.590Z,100736.81
2022-08-17T05:08:29.888Z,100742.34
2022-08-17T05:11:32.672Z,100743.25
2022-08-17T05:14:35.464Z,100744.19
2022-08-17T05:17:39.506Z,100757.25
2022-08-17T05:20:42.812Z,100749.75
2022-08-17T05:23:50.314Z,100752.50
2022-08-17T05:27:01.370Z,100760.38
2022-08-17T05:30:09.008Z,100755.75
2022-08-17T05:33:16.522Z,100756.78
2022-08-17T05:36:43.150Z,100762.38
2022-08-17T05:39:41.885Z,100758.56
2022-08-17T05:42:45.066Z,100755.69
2022-08-17T05:45:56.138Z,100752.34
2022-08-17T05:49:03.675Z,100764.38
2022-08-17T05:52:21.741Z,100760.34
2022-08-17T05:55:33.849Z,100763.16
2022-08-17T05:58:46.815Z,100764.22
2022-08-17T06:01:57.832Z,100760.63
2022-08-17T06:05:17.952Z,100767.91
2022-08-17T06:08:30.540Z,100770.03
2022-08-17T06:11:40.848Z,100769.81
2022-08-17T06:14:58.384Z,100769.81
2022-08-17T06:18:03.990Z,100772.16
2022-08-17T06:21:14.313Z,100779.88
2022-08-17T06:24:27.436Z,100785.19
2022-08-17T06:27:35.808Z,100769.13
2022-08-17T06:30:59.238Z,100774.69
2022-08-17T06:34:05.642Z,100768.66
2022-08-17T06:37:23.995Z,100773.25
2022-08-17T06:40:55.267Z,100777.84
2022-08-17T06:44:10.781Z,100775.53
2022-08-17T06:47:28.609Z,100767.75
2022-08-17T06:50:36.730Z,100776.69
2022-08-17T06:53:45.639Z,100778.53
2022-08-17T06:56:55.346Z,100782.25
2022-08-17T07:00:02.237Z,100784.56
2022-08-17T07:03:15.676Z,100785.19
2022-08-17T07:06:21.835Z,100778.91
2022-08-17T07:09:31.827Z,100784.66
2022-08-17T07:12:40.067Z,100789.53
2022-08-17T07:15:44.194Z,100786.25
2022-08-17T07:18:50.622Z,100777.59
2022-08-17T07:21:57.309Z,100773.88
2022-08-17T07:25:05.267Z,100774.56
2022-08-17T07:28:08.999Z,100784.66
2022-08-17T07:31:14.116Z,100775.31
2022-08-17T07:34:16.890Z,100775.16
2022-08-17T07:37:20.774Z,100775.88
2022-08-17T07:40:33.430Z,100775.22
2022-08-17T07:43:37.926Z,100769.53
2022-08-17T07:47:08.474Z,100776.47
2022-08-17T07:50:27.592Z,100791.59
2022-08-17T07:53:32.063Z,100786.34
2022-08-17T07:56:45.724Z,100778.91
2022-08-17T08:00:16.814Z,100778.13
2022-08-17T08:03:26.145Z,100768.84
2022-08-17T08:06:29.128Z,100778.38
2022-08-17T08:09:35.944Z,100784.75
2022-08-17T08:12:42.055Z,100786.53
2022-08-17T08:15:53.636Z,100774.72
2022-08-17T08:18:59.807Z,100775.47
2022-08-17T08:22:07.793Z,100784.28
2022-08-17T08:25:28.742Z,100787.94
2022-08-17T08:28:43.487Z,100796.41
2022-08-17T08:31:58.730Z,100784.28
2022-08-17T08:35:07.642Z,100785.03
2022-08-17T08:38:22.313Z,100786.97
2022-08-17T08:41:38.425Z,100785.72
2022-08-17T08:45:00.602Z,100778.31
2022-08-17T08:48:53.912Z,100789.56
2022-08-17T08:51:55.752Z,100785.84
2022-08-17T08:55:07.514Z,100788.22
2022-08-17T08:58:31.759Z,100781.44
2022-08-17T09:01:59.762Z,100771.97
2022-08-17T09:05:15.473Z,100772.69
2022-08-17T09:08:41.078Z,100783.44
2022-08-17T09:12:02.498Z,100779.28
2022-08-17T09:15:13.139Z,100779.16
2022-08-17T09:18:59.348Z,100777.75
2022-08-17T09:21:52.687Z,100777.75
2022-08-17T09:25:01.029Z,100769.28
2022-08-17T09:28:07.250Z,100764.19
2022-08-17T09:31:16.043Z,100771.28
2022-08-17T09:34:31.944Z,100766.84
2022-08-17T09:37:44.127Z,100757.25
2022-08-17T09:40:52.536Z,100760.59
2022-08-17T09:44:01.030Z,100759.72
2022-08-17T09:47:11.250Z,100774.91
2022-08-17T09:50:20.173Z,100774.22
2022-08-17T09:53:44.738Z,100765.47
2022-08-17T09:57:28.042Z,100769.84
2022-08-17T10:00:28.016Z,100780.31
2022-08-17T10:03:43.554Z,100773.69
2022-08-17T10:06:54.219Z,100762.22
2022-08-17T10:10:04.503Z,100767.97
2022-08-17T10:13:19.688Z,100771.31
2022-08-17T10:16:36.240Z,100770.44
2022-08-17T10:19:43.988Z,100764.81
2022-08-17T10:23:12.129Z,100750.28
2022-08-17T10:26:25.049Z,100763.34
2022-08-17T10:29:40.769Z,100758.53
2022-08-17T10:32:56.054Z,100758.91
2022-08-17T10:36:10.563Z,100763.56
2022-08-17T10:39:28.459Z,100761.78
2022-08-17T10:42:36.325Z,100753.00
2022-08-17T10:45:49.510Z,100747.97
2022-08-17T10:49:29.521Z,100757.91
2022-08-17T10:52:52.511Z,100759.50
2022-08-17T10:56:23.197Z,100766.25
2022-08-17T10:59:50.865Z,100758.38
2022-08-17T11:02:55.595Z,100753.25
2022-08-17T11:06:12.654Z,100754.72
2022-08-17T11:09:32.525Z,100751.44
2022-08-17T11:12:42.205Z,100751.59
2022-08-17T11:16:08.103Z,100751.56
2022-08-17T11:19:31.661Z,100731.81
2022-08-17T11:23:00.202Z,100738.56
2022-08-17T11:26:08.560Z,100715.63
2022-08-17T11:29:24.619Z,100719.81
2022-08-17T11:32:37.124Z,100716.63
2022-08-17T11:35:49.515Z,100709.63
2022-08-17T11:39:00.698Z,100709.59
2022-08-17T11:42:12.577Z,100712.44
2022-08-17T11:45:35.097Z,100717.09
2022-08-17T11:49:01.274Z,100721.22
2022-08-17T11:52:35.179Z,100717.69
2022-08-17T11:56:04.191Z,100721.78
2022-08-17T11:59:54.991Z,100704.16
2022-08-17T12:03:36.821Z,100705.69
2022-08-17T12:06:51.154Z,100714.84
2022-08-17T12:09:54.224Z,100712.16
2022-08-17T12:12:57.275Z,100703.56
2022-08-17T12:16:00.583Z,100712.88
2022-08-17T12:19:05.176Z,100708.13
2022-08-17T12:22:18.378Z,100704.78
2022-08-17T12:25:25.315Z,100710.44
2022-08-17T12:28:30.267Z,100714.03
2022-08-17T12:31:37.173Z,100714.25
2022-08-17T12:34:43.025Z,100713.34
2022-08-17T12:37:50.626Z,100711.09
2022-08-17T12:40:57.892Z,100714.50
2022-08-17T12:44:03.375Z,100713.56
2022-08-17T12:47:21.071Z,100699.94
2022-08-17T12:50:29.596Z,100699.00
2022-08-17T12:53:36.001Z,100700.19
2022-08-17T12:56:39.183Z,100703.69
2022-08-17T12:59:45.222Z,100687.78
2022-08-17T13:02:52.354Z,100675.09
2022-08-17T13:05:59.037Z,100682.97
2022-08-17T13:09:12.784Z,100679.00
2022-08-17T13:12:15.410Z,100673.72
2022-08-17T13:15:25.142Z,100680.03
2022-08-17T13:18:46.850Z,100672.66
2022-08-17T13:21:53.416Z,100687.91
2022-08-17T13:25:00.797Z,100688.34
2022-08-17T13:28:03.766Z,100675.63
2022-08-17T13:31:24.137Z,100673.81
2022-08-17T13:34:44.541Z,100666.88
2022-08-17T13:38:02.811Z,100673.72
2022-08-17T13:41:07.605Z,100665.28
2022-08-17T13:44:32.730Z,100677.72
2022-08-17T13:47:35.692Z,100675.59
2022-08-17T13:50:42.172Z,100672.75
2022-08-17T13:54:02.847Z,100667.56
2022-08-17T13:57:08.390Z,100665.50
2022-08-17T14:00:19.533Z,100657.09
2022-08-17T14:03:22.296Z,100662.97
2022-08-17T14:06:51.551Z,100666.53
2022-08-17T14:09:54.238Z,100669.59
2022-08-17T14:12:58.534Z,100667.28
2022-08-17T14:16:02.424Z,100664.13
2022-08-17T14:19:06.042Z,100656.25
2022-08-17T14:22:17.536Z,100661.34
2022-08-17T14:25:22.849Z,100670.28
2022-08-17T14:28:27.881Z,100661.69
2022-08-17T14:31:35.360Z,100668.53
2022-08-17T14:34:40.170Z,100661.66
2022-08-17T14:37:44.941Z,100654.63
2022-08-17T14:40:49.681Z,100660.66
2022-08-17T14:43:54.106Z,100655.34
2022-08-17T14:46:57.011Z,100661.69
2022-08-17T14:50:01.300Z,100661.41
2022-08-17T14:53:05.450Z,100654.22
2022-08-17T14:56:09.116Z,100652.38
2022-08-17T14:59:13.306Z,100662.28
2022-08-17T15:02:16.397Z,100648.91
2022-08-17T15:05:19.237Z,100644.44
2022-08-17T15:08:21.867Z,100654.16
2022-08-17T15:11:24.747Z,100656.16
2022-08-17T15:14:29.078Z,100660.66
2022-08-17T15:17:43.788Z,100653.41
2022-08-17T15:20:50.034Z,100645.31
2022-08-17T15:23:52.712Z,100656.72
2022-08-17T15:26:55.358Z,100651.81
2022-08-17T15:29:59.507Z,100652.38
2022-08-17T15:33:03.298Z,100655.31
2022-08-17T15:36:08.321Z,100651.72
2022-08-17T15:39:10.993Z,100644.03
2022-08-17T15:42:14.731Z,100645.25
2022-08-17T15:45:24.532Z,100649.72
2022-08-17T15:48:40.772Z,100638.66
2022-08-17T15:51:43.855Z,100632.53
2022-08-17T15:54:51.160Z,100624.75
2022-08-17T15:57:54.047Z,100630.44
2022-08-17T16:01:16.570Z,100618.25
2022-08-17T16:04:30.184Z,100629.72
2022-08-17T16:07:34.342Z,100634.97
2022-08-17T16:10:37.062Z,100633.38
2022-08-17T16:13:40.643Z,100626.94
2022-08-17T16:16:44.659Z,100616.81
2022-08-17T16:19:47.694Z,100619.81
2022-08-17T16:22:51.445Z,100619.84
2022-08-17T16:25:54.624Z,100634.91
2022-08-17T16:28:58.681Z,100626.81
2022-08-17T16:32:12.948Z,100632.88
2022-08-17T16:35:18.283Z,100626.84
2022-08-17T16:38:22.203Z,100624.84
2022-08-17T16:41:41.651Z,100626.91
2022-08-17T16:44:44.275Z,100627.31
2022-08-17T16:47:50.160Z,100634.59
2022-08-17T16:50:58.573Z,100633.41
2022-08-17T16:54:08.472Z,100622.84
2022-08-17T16:57:11.209Z,100624.06
2022-08-17T17:00:16.177Z,100624.44
2022-08-17T17:03:22.695Z,100622.00
2022-08-17T17:06:32.283Z,100617.97
2022-08-17T17:09:39.139Z,100620.78
2022-08-17T17:13:03.931Z,100625.63
2022-08-17T17:16:18.342Z,100619.16
2022-08-17T17:19:34.356Z,100614.28
2022-08-17T17:22:45.570Z,100626.38
2022-08-17T17:25:59.309Z,100621.50
2022-08-17T17:29:15.072Z,100628.38
2022-08-17T17:32:26.166Z,100627.13
2022-08-17T17:35:35.403Z,100621.03
2022-08-17T17:38:43.837Z,100623.03
2022-08-17T17:41:50.199Z,100624.19
2022-08-17T17:45:00.914Z,100616.91
2022-08-17T17:48:03.676Z,100619.28
2022-08-17T17:52:06.681Z,100616.81
2022-08-17T17:54:58.293Z,100620.78
2022-08-17T17:58:13.302Z,100623.13
2022-08-17T18:01:29.577Z,100615.34
2022-08-17T18:04:41.313Z,100628.53
2022-08-17T18:07:50.395Z,100626.88
2022-08-17T18:11:02.174Z,100633.66
2022-08-17T18:14:21.082Z,100641.66
2022-08-17T18:17:24.002Z,100631.47
2022-08-17T18:20:36.031Z,100637.06
2022-08-17T18:23:54.556Z,100649.47
2022-08-17T18:26:59.220Z,100648.56
2022-08-17T18:30:09.056Z,100651.66
2022-08-17T18:33:24.671Z,100639.81
2022-08-17T18:36:29.936Z,100648.13
2022-08-17T18:39:34.231Z,100646.09
2022-08-17T18:42:38.647Z,100652.84
2022-08-17T18:45:45.708Z,100651.09
2022-08-17T18:48:54.992Z,100652.66
2022-08-17T18:52:15.164Z,100642.91
2022-08-17T18:55:23.859Z,100660.47
2022-08-17T18:58:26.876Z,100659.97
2022-08-17T19:01:52.166Z,100653.88
2022-08-17T19:05:07.330Z,100653.72
2022-08-17T19:08:20.563Z,100660.44
2022-08-17T19:11:29.663Z,100657.09
2022-08-17T19:14:32.722Z,100656.59
2022-08-17T19:17:45.566Z,100649.63
2022-08-17T19:20:56.462Z,100654.25
2022-08-17T19:24:06.107Z,100654.13
2022-08-17T19:27:15.922Z,100645.94
2022-08-17T19:30:21.317Z,100659.47
2022-08-17T19:33:24.647Z,100663.22
2022-08-17T19:36:42.150Z,100665.16
2022-08-17T19:40:06.127Z,100656.59
2022-08-17T19:43:22.528Z,100662.88
2022-08-17T19:46:36.365Z,100662.00
2022-08-17T19:49:50.789Z,100661.75
2022-08-17T19:53:00.446Z,100659.53
2022-08-17T19:56:09.331Z,100648.94
2022-08-17T19:59:21.156Z,100646.75
2022-08-17T20:02:34.747Z,100663.13
2022-08-17T20:06:01.389Z,100647.59
2022-08-17T20:09:14.962Z,100649.09
2022-08-17T20:12:21.102Z,100648.13
2022-08-17T20:15:28.203Z,100645.22
2022-08-17T20:18:37.799Z,100646.06
2022-08-17T20:21:46.998Z,100641.53
2022-08-17T20:24:55.402Z,100647.63
2022-08-17T20:28:05.797Z,100651.06
2022-08-17T20:31:46.122Z,100652.13
2022-08-17T20:34:49.279Z,100639.44
2022-08-17T20:38:02.259Z,100652.94
2022-08-17T20:41:13.512Z,100653.50
2022-08-17T20:44:32.936Z,100648.09
2022-08-17T20:48:00.838Z,100650.56
2022-08-17T20:51:30.593Z,100656.81
2022-08-17T20:54:47.750Z,100656.63
2022-08-17T20:57:50.656Z,100649.56
2022-08-17T21:01:14.245Z,100656.72
2022-08-17T21:04:47.500Z,100659.28
2022-08-17T21:07:58.096Z,100651.41
2022-08-17T21:11:16.058Z,100658.38
2022-08-17T21:14:29.653Z,100659.38
2022-08-17T21:17:41.816Z,100652.59
2022-08-17T21:21:02.530Z,100661.38
2022-08-17T21:24:16.934Z,100663.75
2022-08-17T21:27:35.669Z,100661.84
2022-08-17T21:30:49.961Z,100663.50
2022-08-17T21:34:28.941Z,100664.13
2022-08-17T21:37:39.714Z,100666.09
2022-08-17T21:40:47.009Z,100666.09
2022-08-17T21:43:52.592Z,100665.59
2022-08-17T21:46:55.301Z,100663.59
2022-08-17T21:50:17.251Z,100666.41
2022-08-17T21:53:32.221Z,100669.28
2022-08-17T21:56:39.395Z,100670.47
2022-08-17T21:59:44.265Z,100668.28
2022-08-17T22:02:56.228Z,100669.09
2022-08-17T22:05:58.943Z,100671.44
2022-08-17T22:09:08.111Z,100668.16
2022-08-17T22:12:13.463Z,100678.06
2022-08-17T22:15:20.412Z,100677.31
2022-08-17T22:18:29.049Z,100676.59
2022-08-17T22:21:31.893Z,100689.38
2022-08-17T22:24:36.785Z,100683.69
2022-08-17T22:27:49.859Z,100684.84
2022-08-17T22:31:02.112Z,100679.13
2022-08-17T22:34:13.315Z,100683.47
2022-08-17T22:37:27.492Z,100687.66
2022-08-17T22:40:35.282Z,100681.19
2022-08-17T22:43:44.816Z,100684.25
2022-08-17T22:46:55.369Z,100689.28
2022-08-17T22:50:00.383Z,100684.91
2022-08-17T22:53:31.072Z,100692.38
2022-08-17T22:56:52.644Z,100690.09
2022-08-17T22:59:57.644Z,100691.75
2022-08-17T23:03:22.735Z,100699.09
2022-08-17T23:06:25.817Z,100690.22
2022-08-17T23:09:31.105Z,100690.56
2022-08-17T23:12:39.593Z,100694.56
2022-08-17T23:15:43.132Z,100691.75
2022-08-17T23:18:49.287Z,100687.66
2022-08-17T23:21:55.318Z,100690.72
2022-08-17T23:24:58.628Z,100681.84
2022-08-17T23:28:05.338Z,100680.53
2022-08-17T23:31:09.843Z,100677.25
2022-08-17T23:34:14.916Z,100675.88
2022-08-17T23:37:19.144Z,100675.44
2022-08-17T23:40:22.485Z,100666.44
2022-08-17T23:43:28.191Z,100678.00
2022-08-17T23:46:31.890Z,100671.94
2022-08-17T23:49:36.100Z,100660.25
2022-08-17T23:52:41.433Z,100664.16
2022-08-17T23:55:44.042Z,100663.09
2022-08-17T23:58:48.168Z,100654.69
